sensor_id;sensor_type;location;lat;lon;timestamp;P1;durP1;ratioP1;P2;durP2;ratioP2
4311;SDS011;2169;49.086;9.284;2024-01-10T00:00:46;8.55;;;3.30;;
4311;SDS011;2169;49.086;9.284;2024-01-10T00:03:13;4.38;;;2.97;;
4311;SDS011;2169;49.086;9.284;2024-01-10T00:05:40;8.23;;;3.65;;
4311;SDS011;2169;49.086;9.284;2024-01-10T00:08:08;4.88;;;3.83;;
4311;SDS011;2169;49.086;9.284;2024-01-10T00:10:35;9.38;;;4.75;;
4311;SDS011;2169;49.086;9.284;2024-01-10T00:13:02;4.38;;;2.75;;
4311;SDS011;2169;49.086;9.284;2024-01-10T00:15:29;4.97;;;2.80;;
4311;SDS011;2169;49.086;9.284;2024-01-10T00:17:56;8.57;;;4.35;;
4311;SDS011;2169;49.086;9.284;2024-01-10T00:20:23;8.60;;;4.32;;
4311;SDS011;2169;49.086;9.284;2024-01-10T00:22:50;2.45;;;2.25;;
4311;SDS011;2169;49.086;9.284;2024-01-10T00:25:18;4.75;;;3.25;;
4311;SDS011;2169;49.086;9.284;2024-01-10T00:27:48;5.15;;;3.20;;
4311;SDS011;2169;49.086;9.284;2024-01-10T00:30:15;4.55;;;2.05;;
4311;SDS011;2169;49.086;9.284;2024-01-10T00:32:42;7.50;;;3.92;;
4311;SDS011;2169;49.086;9.284;2024-01-10T00:35:09;7.57;;;3.15;;
4311;SDS011;2169;49.086;9.284;2024-01-10T00:37:36;4.18;;;3.33;;
4311;SDS011;2169;49.086;9.284;2024-01-10T00:40:03;2.88;;;2.47;;
4311;SDS011;2169;49.086;9.284;2024-01-10T00:42:31;4.68;;;3.58;;
4311;SDS011;2169;49.086;9.284;2024-01-10T00:44:58;8.50;;;3.65;;
4311;SDS011;2169;49.086;9.284;2024-01-10T00:47:25;4.20;;;1.85;;
4311;SDS011;2169;49.086;9.284;2024-01-10T00:49:52;3.80;;;2.20;;
4311;SDS011;2169;49.086;9.284;2024-01-10T00:52:19;2.53;;;2.28;;
4311;SDS011;2169;49.086;9.284;2024-01-10T00:54:46;5.55;;;2.47;;
4311;SDS011;2169;49.086;9.284;2024-01-10T00:57:13;12.73;;;5.97;;
4311;SDS011;2169;49.086;9.284;2024-01-10T00:59:42;7.35;;;2.90;;
4311;SDS011;2169;49.086;9.284;2024-01-10T01:02:09;2.50;;;2.35;;
4311;SDS011;2169;49.086;9.284;2024-01-10T01:04:35;6.10;;;4.03;;
4311;SDS011;2169;49.086;9.284;2024-01-10T01:07:02;3.65;;;2.20;;
4311;SDS011;2169;49.086;9.284;2024-01-10T01:09:29;6.38;;;2.55;;
4311;SDS011;2169;49.086;9.284;2024-01-10T01:11:56;2.95;;;2.75;;
4311;SDS011;2169;49.086;9.284;2024-01-10T01:14:23;2.80;;;1.92;;
4311;SDS011;2169;49.086;9.284;2024-01-10T01:16:51;3.58;;;2.65;;
4311;SDS011;2169;49.086;9.284;2024-01-10T01:19:18;1.08;;;1.08;;
4311;SDS011;2169;49.086;9.284;2024-01-10T01:21:45;4.20;;;3.10;;
4311;SDS011;2169;49.086;9.284;2024-01-10T01:24:12;4.10;;;3.25;;
4311;SDS011;2169;49.086;9.284;2024-01-10T01:26:39;2.08;;;1.83;;
4311;SDS011;2169;49.086;9.284;2024-01-10T01:29:05;2.83;;;2.75;;
4311;SDS011;2169;49.086;9.284;2024-01-10T01:31:33;10.98;;;4.40;;
4311;SDS011;2169;49.086;9.284;2024-01-10T01:34:02;5.57;;;2.60;;
4311;SDS011;2169;49.086;9.284;2024-01-10T01:36:28;1.67;;;1.58;;
4311;SDS011;2169;49.086;9.284;2024-01-10T01:38:55;5.47;;;4.38;;
4311;SDS011;2169;49.086;9.284;2024-01-10T01:41:22;10.60;;;3.00;;
4311;SDS011;2169;49.086;9.284;2024-01-10T01:43:49;5.22;;;2.83;;
4311;SDS011;2169;49.086;9.284;2024-01-10T01:46:17;3.60;;;2.83;;
4311;SDS011;2169;49.086;9.284;2024-01-10T01:48:45;4.88;;;2.60;;
4311;SDS011;2169;49.086;9.284;2024-01-10T01:51:13;6.20;;;3.95;;
4311;SDS011;2169;49.086;9.284;2024-01-10T01:53:41;5.93;;;4.03;;
4311;SDS011;2169;49.086;9.284;2024-01-10T01:56:10;6.38;;;2.95;;
4311;SDS011;2169;49.086;9.284;2024-01-10T01:58:39;2.28;;;2.15;;
4311;SDS011;2169;49.086;9.284;2024-01-10T02:01:06;7.53;;;2.80;;
4311;SDS011;2169;49.086;9.284;2024-01-10T02:03:37;16.70;;;2.47;;
4311;SDS011;2169;49.086;9.284;2024-01-10T02:06:04;4.53;;;2.78;;
4311;SDS011;2169;49.086;9.284;2024-01-10T02:08:33;2.85;;;1.70;;
4311;SDS011;2169;49.086;9.284;2024-01-10T02:11:01;4.60;;;2.85;;
4311;SDS011;2169;49.086;9.284;2024-01-10T02:13:28;19.95;;;3.10;;
4311;SDS011;2169;49.086;9.284;2024-01-10T02:15:56;8.40;;;3.85;;
4311;SDS011;2169;49.086;9.284;2024-01-10T02:18:23;5.00;;;4.28;;
4311;SDS011;2169;49.086;9.284;2024-01-10T02:20:51;6.25;;;2.33;;
4311;SDS011;2169;49.086;9.284;2024-01-10T02:23:18;6.50;;;4.45;;
4311;SDS011;2169;49.086;9.284;2024-01-10T02:25:46;3.42;;;1.67;;
4311;SDS011;2169;49.086;9.284;2024-01-10T02:28:13;3.83;;;1.80;;
4311;SDS011;2169;49.086;9.284;2024-01-10T02:30:40;3.60;;;3.30;;
4311;SDS011;2169;49.086;9.284;2024-01-10T02:33:07;4.53;;;2.97;;
4311;SDS011;2169;49.086;9.284;2024-01-10T02:35:34;12.50;;;2.65;;
4311;SDS011;2169;49.086;9.284;2024-01-10T02:38:00;8.50;;;4.63;;
4311;SDS011;2169;49.086;9.284;2024-01-10T02:40:27;8.50;;;3.40;;
4311;SDS011;2169;49.086;9.284;2024-01-10T02:42:56;6.57;;;2.90;;
4311;SDS011;2169;49.086;9.284;2024-01-10T02:45:22;9.68;;;4.85;;
4311;SDS011;2169;49.086;9.284;2024-01-10T02:47:49;8.13;;;2.58;;
4311;SDS011;2169;49.086;9.284;2024-01-10T02:50:16;4.65;;;3.58;;
4311;SDS011;2169;49.086;9.284;2024-01-10T02:52:43;3.95;;;2.45;;
4311;SDS011;2169;49.086;9.284;2024-01-10T02:55:10;9.13;;;3.45;;
4311;SDS011;2169;49.086;9.284;2024-01-10T02:57:37;8.32;;;4.40;;
4311;SDS011;2169;49.086;9.284;2024-01-10T03:00:06;4.50;;;4.10;;
4311;SDS011;2169;49.086;9.284;2024-01-10T03:02:34;9.20;;;4.10;;
4311;SDS011;2169;49.086;9.284;2024-01-10T03:05:01;4.53;;;2.45;;
4311;SDS011;2169;49.086;9.284;2024-01-10T03:07:28;2.90;;;2.45;;
4311;SDS011;2169;49.086;9.284;2024-01-10T03:09:54;6.20;;;4.25;;
4311;SDS011;2169;49.086;9.284;2024-01-10T03:12:21;4.45;;;4.25;;
4311;SDS011;2169;49.086;9.284;2024-01-10T03:14:48;11.82;;;4.13;;
4311;SDS011;2169;49.086;9.284;2024-01-10T03:17:16;7.70;;;5.97;;
4311;SDS011;2169;49.086;9.284;2024-01-10T03:19:43;4.50;;;3.80;;
4311;SDS011;2169;49.086;9.284;2024-01-10T03:22:10;6.05;;;4.07;;
4311;SDS011;2169;49.086;9.284;2024-01-10T03:24:38;8.65;;;6.88;;
4311;SDS011;2169;49.086;9.284;2024-01-10T03:27:05;3.97;;;3.42;;
4311;SDS011;2169;49.086;9.284;2024-01-10T03:29:32;2.25;;;1.98;;
4311;SDS011;2169;49.086;9.284;2024-01-10T03:32:00;3.88;;;3.50;;
4311;SDS011;2169;49.086;9.284;2024-01-10T03:34:28;2.47;;;2.05;;
4311;SDS011;2169;49.086;9.284;2024-01-10T03:36:55;4.45;;;3.67;;
4311;SDS011;2169;49.086;9.284;2024-01-10T03:39:22;11.75;;;3.67;;
4311;SDS011;2169;49.086;9.284;2024-01-10T03:41:48;6.82;;;5.20;;
4311;SDS011;2169;49.086;9.284;2024-01-10T03:44:15;1.45;;;1.45;;
4311;SDS011;2169;49.086;9.284;2024-01-10T03:46:42;14.00;;;6.72;;
4311;SDS011;2169;49.086;9.284;2024-01-10T03:49:09;6.30;;;3.22;;
4311;SDS011;2169;49.086;9.284;2024-01-10T03:51:37;7.72;;;5.28;;
4311;SDS011;2169;49.086;9.284;2024-01-10T03:54:05;14.90;;;4.57;;
4311;SDS011;2169;49.086;9.284;2024-01-10T03:56:32;7.53;;;5.65;;
4311;SDS011;2169;49.086;9.284;2024-01-10T03:58:59;7.03;;;4.68;;
4311;SDS011;2169;49.086;9.284;2024-01-10T04:01:26;4.95;;;3.90;;
4311;SDS011;2169;49.086;9.284;2024-01-10T04:03:53;8.93;;;5.50;;
4311;SDS011;2169;49.086;9.284;2024-01-10T04:06:20;7.55;;;4.00;;
4311;SDS011;2169;49.086;9.284;2024-01-10T04:08:49;5.18;;;4.13;;
4311;SDS011;2169;49.086;9.284;2024-01-10T04:11:16;4.95;;;2.45;;
4311;SDS011;2169;49.086;9.284;2024-01-10T04:13:43;6.45;;;6.18;;
4311;SDS011;2169;49.086;9.284;2024-01-10T04:16:10;3.30;;;3.05;;
4311;SDS011;2169;49.086;9.284;2024-01-10T04:18:38;9.05;;;4.32;;
4311;SDS011;2169;49.086;9.284;2024-01-10T04:21:05;8.20;;;4.93;;
4311;SDS011;2169;49.086;9.284;2024-01-10T04:23:33;7.63;;;3.85;;
4311;SDS011;2169;49.086;9.284;2024-01-10T04:26:02;9.07;;;4.07;;
4311;SDS011;2169;49.086;9.284;2024-01-10T04:28:29;5.63;;;3.55;;
4311;SDS011;2169;49.086;9.284;2024-01-10T04:30:56;6.75;;;5.40;;
4311;SDS011;2169;49.086;9.284;2024-01-10T04:33:23;7.18;;;3.72;;
4311;SDS011;2169;49.086;9.284;2024-01-10T04:35:49;4.45;;;2.97;;
4311;SDS011;2169;49.086;9.284;2024-01-10T04:38:16;6.07;;;2.55;;
4311;SDS011;2169;49.086;9.284;2024-01-10T04:40:43;4.45;;;2.10;;
4311;SDS011;2169;49.086;9.284;2024-01-10T04:43:11;13.50;;;3.63;;
4311;SDS011;2169;49.086;9.284;2024-01-10T04:45:38;4.63;;;4.13;;
4311;SDS011;2169;49.086;9.284;2024-01-10T04:48:05;5.85;;;4.03;;
4311;SDS011;2169;49.086;9.284;2024-01-10T04:50:34;6.20;;;2.25;;
4311;SDS011;2169;49.086;9.284;2024-01-10T04:53:00;4.55;;;3.67;;
4311;SDS011;2169;49.086;9.284;2024-01-10T04:55:27;2.95;;;2.65;;
4311;SDS011;2169;49.086;9.284;2024-01-10T04:57:55;5.28;;;3.88;;
4311;SDS011;2169;49.086;9.284;2024-01-10T05:00:23;10.25;;;5.15;;
4311;SDS011;2169;49.086;9.284;2024-01-10T05:02:50;13.77;;;5.65;;
4311;SDS011;2169;49.086;9.284;2024-01-10T05:05:17;5.50;;;3.83;;
4311;SDS011;2169;49.086;9.284;2024-01-10T05:07:48;8.80;;;3.97;;
4311;SDS011;2169;49.086;9.284;2024-01-10T05:10:15;10.80;;;2.60;;
4311;SDS011;2169;49.086;9.284;2024-01-10T05:12:42;7.70;;;3.70;;
4311;SDS011;2169;49.086;9.284;2024-01-10T05:15:09;7.88;;;4.22;;
4311;SDS011;2169;49.086;9.284;2024-01-10T05:17:37;5.65;;;5.10;;
4311;SDS011;2169;49.086;9.284;2024-01-10T05:20:04;3.15;;;2.08;;
4311;SDS011;2169;49.086;9.284;2024-01-10T05:22:32;3.45;;;3.15;;
4311;SDS011;2169;49.086;9.284;2024-01-10T05:25:00;13.65;;;6.55;;
4311;SDS011;2169;49.086;9.284;2024-01-10T05:27:27;5.20;;;3.65;;
4311;SDS011;2169;49.086;9.284;2024-01-10T05:29:54;6.07;;;3.47;;
4311;SDS011;2169;49.086;9.284;2024-01-10T05:32:21;5.35;;;4.93;;
4311;SDS011;2169;49.086;9.284;2024-01-10T05:34:49;11.63;;;6.80;;
4311;SDS011;2169;49.086;9.284;2024-01-10T05:37:16;5.22;;;4.20;;
4311;SDS011;2169;49.086;9.284;2024-01-10T05:39:43;4.65;;;3.05;;
4311;SDS011;2169;49.086;9.284;2024-01-10T05:42:10;13.23;;;5.07;;
4311;SDS011;2169;49.086;9.284;2024-01-10T05:44:37;11.45;;;4.45;;
4311;SDS011;2169;49.086;9.284;2024-01-10T05:47:05;3.05;;;2.83;;
4311;SDS011;2169;49.086;9.284;2024-01-10T05:49:32;3.75;;;3.55;;
4311;SDS011;2169;49.086;9.284;2024-01-10T05:52:00;3.92;;;3.53;;
4311;SDS011;2169;49.086;9.284;2024-01-10T05:54:27;10.57;;;3.85;;
4311;SDS011;2169;49.086;9.284;2024-01-10T05:56:54;9.80;;;5.13;;
4311;SDS011;2169;49.086;9.284;2024-01-10T05:59:21;2.45;;;2.00;;
4311;SDS011;2169;49.086;9.284;2024-01-10T06:01:48;5.00;;;4.25;;
4311;SDS011;2169;49.086;9.284;2024-01-10T06:04:14;11.02;;;7.32;;
4311;SDS011;2169;49.086;9.284;2024-01-10T06:06:42;6.70;;;3.53;;
4311;SDS011;2169;49.086;9.284;2024-01-10T06:09:12;7.05;;;4.60;;
4311;SDS011;2169;49.086;9.284;2024-01-10T06:11:40;4.75;;;3.75;;
4311;SDS011;2169;49.086;9.284;2024-01-10T06:14:08;2.50;;;2.33;;
4311;SDS011;2169;49.086;9.284;2024-01-10T06:16:35;6.57;;;3.92;;
4311;SDS011;2169;49.086;9.284;2024-01-10T06:19:02;8.82;;;4.00;;
4311;SDS011;2169;49.086;9.284;2024-01-10T06:21:29;10.25;;;4.18;;
4311;SDS011;2169;49.086;9.284;2024-01-10T06:23:56;4.05;;;3.55;;
4311;SDS011;2169;49.086;9.284;2024-01-10T06:26:24;3.45;;;2.33;;
4311;SDS011;2169;49.086;9.284;2024-01-10T06:28:51;10.23;;;4.68;;
4311;SDS011;2169;49.086;9.284;2024-01-10T06:31:18;9.57;;;5.55;;
4311;SDS011;2169;49.086;9.284;2024-01-10T06:33:45;6.13;;;4.75;;
4311;SDS011;2169;49.086;9.284;2024-01-10T06:36:12;9.18;;;4.78;;
4311;SDS011;2169;49.086;9.284;2024-01-10T06:38:39;2.15;;;1.92;;
4311;SDS011;2169;49.086;9.284;2024-01-10T06:41:07;2.97;;;2.38;;
4311;SDS011;2169;49.086;9.284;2024-01-10T06:43:36;7.00;;;3.88;;
4311;SDS011;2169;49.086;9.284;2024-01-10T06:46:03;13.00;;;4.75;;
4311;SDS011;2169;49.086;9.284;2024-01-10T06:48:30;14.27;;;5.38;;
4311;SDS011;2169;49.086;9.284;2024-01-10T06:50:57;8.05;;;4.05;;
4311;SDS011;2169;49.086;9.284;2024-01-10T06:53:25;5.25;;;3.42;;
4311;SDS011;2169;49.086;9.284;2024-01-10T06:55:51;7.15;;;3.80;;
4311;SDS011;2169;49.086;9.284;2024-01-10T06:58:18;5.55;;;5.25;;
4311;SDS011;2169;49.086;9.284;2024-01-10T07:00:46;3.38;;;3.05;;
4311;SDS011;2169;49.086;9.284;2024-01-10T07:03:15;3.45;;;3.33;;
4311;SDS011;2169;49.086;9.284;2024-01-10T07:05:43;6.22;;;4.30;;
4311;SDS011;2169;49.086;9.284;2024-01-10T07:08:10;4.43;;;4.18;;
4311;SDS011;2169;49.086;9.284;2024-01-10T07:10:37;11.45;;;4.45;;
4311;SDS011;2169;49.086;9.284;2024-01-10T07:13:04;3.90;;;3.55;;
4311;SDS011;2169;49.086;9.284;2024-01-10T07:15:31;6.68;;;4.05;;
4311;SDS011;2169;49.086;9.284;2024-01-10T07:18:00;8.02;;;4.60;;
4311;SDS011;2169;49.086;9.284;2024-01-10T07:20:27;14.77;;;6.45;;
4311;SDS011;2169;49.086;9.284;2024-01-10T07:22:54;3.58;;;3.40;;
4311;SDS011;2169;49.086;9.284;2024-01-10T07:25:20;13.43;;;6.55;;
4311;SDS011;2169;49.086;9.284;2024-01-10T07:27:50;3.08;;;2.88;;
4311;SDS011;2169;49.086;9.284;2024-01-10T07:30:17;11.30;;;5.07;;
4311;SDS011;2169;49.086;9.284;2024-01-10T07:32:44;7.38;;;5.00;;
4311;SDS011;2169;49.086;9.284;2024-01-10T07:35:13;7.07;;;4.28;;
4311;SDS011;2169;49.086;9.284;2024-01-10T07:37:40;6.68;;;4.32;;
4311;SDS011;2169;49.086;9.284;2024-01-10T07:40:08;5.82;;;3.25;;
4311;SDS011;2169;49.086;9.284;2024-01-10T07:42:35;7.50;;;5.65;;
4311;SDS011;2169;49.086;9.284;2024-01-10T07:45:05;5.18;;;4.10;;
4311;SDS011;2169;49.086;9.284;2024-01-10T07:47:33;6.30;;;2.85;;
4311;SDS011;2169;49.086;9.284;2024-01-10T07:50:03;4.45;;;3.70;;
4311;SDS011;2169;49.086;9.284;2024-01-10T07:52:32;6.88;;;3.92;;
4311;SDS011;2169;49.086;9.284;2024-01-10T07:54:59;7.45;;;3.95;;
4311;SDS011;2169;49.086;9.284;2024-01-10T07:57:26;9.15;;;5.00;;
4311;SDS011;2169;49.086;9.284;2024-01-10T07:59:53;4.70;;;3.15;;
4311;SDS011;2169;49.086;9.284;2024-01-10T08:02:20;7.88;;;3.72;;
4311;SDS011;2169;49.086;9.284;2024-01-10T08:04:47;4.18;;;3.88;;
4311;SDS011;2169;49.086;9.284;2024-01-10T08:07:14;8.40;;;3.33;;
4311;SDS011;2169;49.086;9.284;2024-01-10T08:09:42;5.03;;;4.25;;
4311;SDS011;2169;49.086;9.284;2024-01-10T08:12:09;5.25;;;4.68;;
4311;SDS011;2169;49.086;9.284;2024-01-10T08:14:36;9.13;;;3.67;;
4311;SDS011;2169;49.086;9.284;2024-01-10T08:17:03;9.80;;;3.60;;
4311;SDS011;2169;49.086;9.284;2024-01-10T08:19:31;17.02;;;7.65;;
4311;SDS011;2169;49.086;9.284;2024-01-10T08:21:58;23.33;;;4.07;;
4311;SDS011;2169;49.086;9.284;2024-01-10T08:24:25;9.60;;;7.25;;
4311;SDS011;2169;49.086;9.284;2024-01-10T08:26:53;10.38;;;5.35;;
4311;SDS011;2169;49.086;9.284;2024-01-10T08:29:20;5.57;;;5.18;;
4311;SDS011;2169;49.086;9.284;2024-01-10T08:31:47;7.43;;;3.85;;
4311;SDS011;2169;49.086;9.284;2024-01-10T08:34:14;8.38;;;5.07;;
4311;SDS011;2169;49.086;9.284;2024-01-10T08:36:43;6.47;;;5.07;;
4311;SDS011;2169;49.086;9.284;2024-01-10T08:39:10;16.95;;;6.55;;
4311;SDS011;2169;49.086;9.284;2024-01-10T08:41:37;8.52;;;4.53;;
4311;SDS011;2169;49.086;9.284;2024-01-10T08:44:10;8.27;;;5.10;;
4311;SDS011;2169;49.086;9.284;2024-01-10T08:46:37;10.27;;;5.88;;
4311;SDS011;2169;49.086;9.284;2024-01-10T08:49:04;14.13;;;5.43;;
4311;SDS011;2169;49.086;9.284;2024-01-10T08:51:31;9.57;;;5.60;;
4311;SDS011;2169;49.086;9.284;2024-01-10T08:53:58;7.97;;;4.35;;
4311;SDS011;2169;49.086;9.284;2024-01-10T08:56:25;19.17;;;5.50;;
4311;SDS011;2169;49.086;9.284;2024-01-10T08:58:52;5.47;;;4.65;;
4311;SDS011;2169;49.086;9.284;2024-01-10T09:01:21;9.52;;;5.10;;
4311;SDS011;2169;49.086;9.284;2024-01-10T09:03:48;10.18;;;5.70;;
4311;SDS011;2169;49.086;9.284;2024-01-10T09:06:15;3.85;;;3.53;;
4311;SDS011;2169;49.086;9.284;2024-01-10T09:08:42;4.57;;;3.92;;
4311;SDS011;2169;49.086;9.284;2024-01-10T09:11:09;13.77;;;7.63;;
4311;SDS011;2169;49.086;9.284;2024-01-10T09:13:35;15.93;;;4.65;;
4311;SDS011;2169;49.086;9.284;2024-01-10T09:16:05;9.48;;;4.30;;
4311;SDS011;2169;49.086;9.284;2024-01-10T09:18:33;17.23;;;4.95;;
4311;SDS011;2169;49.086;9.284;2024-01-10T09:21:00;10.23;;;3.60;;
4311;SDS011;2169;49.086;9.284;2024-01-10T09:23:27;10.07;;;5.97;;
4311;SDS011;2169;49.086;9.284;2024-01-10T09:25:54;10.60;;;5.70;;
4311;SDS011;2169;49.086;9.284;2024-01-10T09:28:21;4.97;;;4.63;;
4311;SDS011;2169;49.086;9.284;2024-01-10T09:30:48;9.75;;;5.90;;
4311;SDS011;2169;49.086;9.284;2024-01-10T09:33:16;4.97;;;3.88;;
4311;SDS011;2169;49.086;9.284;2024-01-10T09:35:45;4.30;;;3.92;;
4311;SDS011;2169;49.086;9.284;2024-01-10T09:38:12;8.63;;;4.70;;
4311;SDS011;2169;49.086;9.284;2024-01-10T09:40:39;6.25;;;4.25;;
4311;SDS011;2169;49.086;9.284;2024-01-10T09:43:07;15.77;;;5.78;;
4311;SDS011;2169;49.086;9.284;2024-01-10T09:45:34;9.18;;;6.55;;
4311;SDS011;2169;49.086;9.284;2024-01-10T09:48:02;6.45;;;5.10;;
4311;SDS011;2169;49.086;9.284;2024-01-10T09:50:30;5.75;;;4.85;;
4311;SDS011;2169;49.086;9.284;2024-01-10T09:53:02;8.57;;;7.00;;
4311;SDS011;2169;49.086;9.284;2024-01-10T09:55:33;12.05;;;7.07;;
4311;SDS011;2169;49.086;9.284;2024-01-10T09:58:01;8.95;;;4.88;;
4311;SDS011;2169;49.086;9.284;2024-01-10T10:00:29;7.45;;;6.30;;
4311;SDS011;2169;49.086;9.284;2024-01-10T10:02:57;11.77;;;6.07;;
4311;SDS011;2169;49.086;9.284;2024-01-10T10:05:26;5.95;;;4.97;;
4311;SDS011;2169;49.086;9.284;2024-01-10T10:07:54;11.40;;;6.50;;
4311;SDS011;2169;49.086;9.284;2024-01-10T10:10:24;12.30;;;6.35;;
4311;SDS011;2169;49.086;9.284;2024-01-10T10:12:52;6.32;;;5.78;;
4311;SDS011;2169;49.086;9.284;2024-01-10T10:15:19;12.02;;;6.93;;
4311;SDS011;2169;49.086;9.284;2024-01-10T10:17:47;8.27;;;6.72;;
4311;SDS011;2169;49.086;9.284;2024-01-10T10:20:19;13.88;;;6.45;;
4311;SDS011;2169;49.086;9.284;2024-01-10T10:23:00;20.45;;;7.28;;
4311;SDS011;2169;49.086;9.284;2024-01-10T10:25:35;14.27;;;8.23;;
4311;SDS011;2169;49.086;9.284;2024-01-10T10:28:03;14.07;;;7.82;;
4311;SDS011;2169;49.086;9.284;2024-01-10T10:30:31;11.30;;;6.13;;
4311;SDS011;2169;49.086;9.284;2024-01-10T10:32:59;13.60;;;6.53;;
4311;SDS011;2169;49.086;9.284;2024-01-10T10:35:26;15.63;;;8.48;;
4311;SDS011;2169;49.086;9.284;2024-01-10T10:37:53;14.23;;;6.80;;
4311;SDS011;2169;49.086;9.284;2024-01-10T10:40:21;9.27;;;7.72;;
4311;SDS011;2169;49.086;9.284;2024-01-10T10:42:52;13.88;;;8.23;;
4311;SDS011;2169;49.086;9.284;2024-01-10T10:45:21;10.40;;;6.53;;
4311;SDS011;2169;49.086;9.284;2024-01-10T10:47:53;9.32;;;7.82;;
4311;SDS011;2169;49.086;9.284;2024-01-10T10:50:24;13.02;;;6.20;;
4311;SDS011;2169;49.086;9.284;2024-01-10T10:52:53;9.85;;;7.68;;
4311;SDS011;2169;49.086;9.284;2024-01-10T10:55:21;10.27;;;8.15;;
4311;SDS011;2169;49.086;9.284;2024-01-10T10:57:51;5.57;;;5.18;;
4311;SDS011;2169;49.086;9.284;2024-01-10T11:00:21;24.15;;;8.63;;
4311;SDS011;2169;49.086;9.284;2024-01-10T11:02:52;6.13;;;5.53;;
4311;SDS011;2169;49.086;9.284;2024-01-10T11:05:19;12.52;;;9.20;;
4311;SDS011;2169;49.086;9.284;2024-01-10T11:07:49;9.52;;;6.90;;
4311;SDS011;2169;49.086;9.284;2024-01-10T11:10:17;10.88;;;6.22;;
4311;SDS011;2169;49.086;9.284;2024-01-10T11:12:53;14.85;;;9.98;;
4311;SDS011;2169;49.086;9.284;2024-01-10T11:15:39;12.02;;;6.57;;
4311;SDS011;2169;49.086;9.284;2024-01-10T11:18:22;15.23;;;7.82;;
4311;SDS011;2169;49.086;9.284;2024-01-10T11:21:08;13.02;;;6.60;;
4311;SDS011;2169;49.086;9.284;2024-01-10T11:23:46;14.43;;;8.73;;
4311;SDS011;2169;49.086;9.284;2024-01-10T11:26:15;11.73;;;7.15;;
4311;SDS011;2169;49.086;9.284;2024-01-10T11:28:51;7.13;;;6.28;;
4311;SDS011;2169;49.086;9.284;2024-01-10T11:31:26;11.40;;;8.02;;
4311;SDS011;2169;49.086;9.284;2024-01-10T11:33:55;15.25;;;8.75;;
4311;SDS011;2169;49.086;9.284;2024-01-10T11:36:23;12.95;;;8.75;;
4311;SDS011;2169;49.086;9.284;2024-01-10T11:38:55;17.98;;;7.72;;
4311;SDS011;2169;49.086;9.284;2024-01-10T11:41:27;14.52;;;8.70;;
4311;SDS011;2169;49.086;9.284;2024-01-10T11:47:07;13.75;;;8.68;;
4311;SDS011;2169;49.086;9.284;2024-01-10T11:49:34;8.95;;;7.85;;
4311;SDS011;2169;49.086;9.284;2024-01-10T11:52:01;12.65;;;7.18;;
4311;SDS011;2169;49.086;9.284;2024-01-10T11:54:35;9.65;;;6.95;;
4311;SDS011;2169;49.086;9.284;2024-01-10T11:57:03;12.95;;;9.07;;
4311;SDS011;2169;49.086;9.284;2024-01-10T11:59:34;19.25;;;7.25;;
4311;SDS011;2169;49.086;9.284;2024-01-10T12:02:02;16.42;;;8.48;;
4311;SDS011;2169;49.086;9.284;2024-01-10T12:04:31;12.90;;;7.70;;
4311;SDS011;2169;49.086;9.284;2024-01-10T12:06:59;8.48;;;6.25;;
4311;SDS011;2169;49.086;9.284;2024-01-10T12:09:28;17.48;;;8.25;;
4311;SDS011;2169;49.086;9.284;2024-01-10T12:11:55;12.00;;;5.88;;
4311;SDS011;2169;49.086;9.284;2024-01-10T12:14:22;9.82;;;5.50;;
4311;SDS011;2169;49.086;9.284;2024-01-10T12:16:50;17.60;;;7.47;;
4311;SDS011;2169;49.086;9.284;2024-01-10T12:19:17;11.38;;;6.80;;
4311;SDS011;2169;49.086;9.284;2024-01-10T12:21:45;19.17;;;8.25;;
4311;SDS011;2169;49.086;9.284;2024-01-10T12:24:13;11.15;;;7.30;;
4311;SDS011;2169;49.086;9.284;2024-01-10T12:26:43;14.25;;;8.40;;
4311;SDS011;2169;49.086;9.284;2024-01-10T12:29:10;11.45;;;7.03;;
4311;SDS011;2169;49.086;9.284;2024-01-10T12:31:37;13.60;;;7.85;;
4311;SDS011;2169;49.086;9.284;2024-01-10T12:34:06;10.63;;;7.10;;
4311;SDS011;2169;49.086;9.284;2024-01-10T12:36:35;11.57;;;6.40;;
4311;SDS011;2169;49.086;9.284;2024-01-10T12:39:03;14.80;;;6.00;;
4311;SDS011;2169;49.086;9.284;2024-01-10T12:41:32;17.48;;;7.53;;
4311;SDS011;2169;49.086;9.284;2024-01-10T12:44:01;17.83;;;10.38;;
4311;SDS011;2169;49.086;9.284;2024-01-10T12:46:29;14.77;;;7.85;;
4311;SDS011;2169;49.086;9.284;2024-01-10T12:48:59;11.85;;;7.68;;
4311;SDS011;2169;49.086;9.284;2024-01-10T12:51:28;17.67;;;7.85;;
4311;SDS011;2169;49.086;9.284;2024-01-10T12:53:55;10.90;;;7.72;;
4311;SDS011;2169;49.086;9.284;2024-01-10T12:56:25;14.50;;;8.82;;
4311;SDS011;2169;49.086;9.284;2024-01-10T12:58:53;15.48;;;8.10;;
4311;SDS011;2169;49.086;9.284;2024-01-10T13:01:22;16.65;;;8.48;;
4311;SDS011;2169;49.086;9.284;2024-01-10T13:03:49;17.48;;;7.20;;
4311;SDS011;2169;49.086;9.284;2024-01-10T13:06:16;11.40;;;8.32;;
4311;SDS011;2169;49.086;9.284;2024-01-10T13:08:47;15.48;;;8.30;;
4311;SDS011;2169;49.086;9.284;2024-01-10T13:11:14;11.15;;;7.32;;
4311;SDS011;2169;49.086;9.284;2024-01-10T13:13:43;14.05;;;9.23;;
4311;SDS011;2169;49.086;9.284;2024-01-10T13:16:10;13.82;;;7.75;;
4311;SDS011;2169;49.086;9.284;2024-01-10T13:18:37;14.70;;;6.97;;
4311;SDS011;2169;49.086;9.284;2024-01-10T13:21:04;16.75;;;8.50;;
4311;SDS011;2169;49.086;9.284;2024-01-10T13:23:31;13.60;;;9.35;;
4311;SDS011;2169;49.086;9.284;2024-01-10T13:25:59;10.30;;;9.30;;
4311;SDS011;2169;49.086;9.284;2024-01-10T13:28:27;17.60;;;7.50;;
4311;SDS011;2169;49.086;9.284;2024-01-10T13:30:56;12.00;;;7.55;;
4311;SDS011;2169;49.086;9.284;2024-01-10T13:33:23;16.35;;;7.43;;
4311;SDS011;2169;49.086;9.284;2024-01-10T13:35:50;10.18;;;7.32;;
4311;SDS011;2169;49.086;9.284;2024-01-10T13:38:17;26.10;;;11.20;;
4311;SDS011;2169;49.086;9.284;2024-01-10T13:40:45;12.68;;;8.10;;
4311;SDS011;2169;49.086;9.284;2024-01-10T13:43:13;20.10;;;8.48;;
4311;SDS011;2169;49.086;9.284;2024-01-10T13:45:40;13.25;;;7.68;;
4311;SDS011;2169;49.086;9.284;2024-01-10T13:48:09;13.60;;;6.55;;
4311;SDS011;2169;49.086;9.284;2024-01-10T13:50:36;8.13;;;6.13;;
4311;SDS011;2169;49.086;9.284;2024-01-10T13:53:03;13.75;;;7.43;;
4311;SDS011;2169;49.086;9.284;2024-01-10T13:55:30;16.45;;;7.03;;
4311;SDS011;2169;49.086;9.284;2024-01-10T13:57:57;10.60;;;7.55;;
4311;SDS011;2169;49.086;9.284;2024-01-10T14:00:24;12.88;;;10.13;;
4311;SDS011;2169;49.086;9.284;2024-01-10T14:02:52;13.20;;;8.30;;
4311;SDS011;2169;49.086;9.284;2024-01-10T14:05:25;15.73;;;9.20;;
4311;SDS011;2169;49.086;9.284;2024-01-10T14:07:52;18.38;;;9.07;;
4311;SDS011;2169;49.086;9.284;2024-01-10T14:10:19;16.88;;;8.55;;
4311;SDS011;2169;49.086;9.284;2024-01-10T14:12:46;13.30;;;8.65;;
4311;SDS011;2169;49.086;9.284;2024-01-10T14:15:13;14.25;;;7.78;;
4311;SDS011;2169;49.086;9.284;2024-01-10T14:17:40;15.75;;;9.35;;
4311;SDS011;2169;49.086;9.284;2024-01-10T14:20:07;19.55;;;11.43;;
4311;SDS011;2169;49.086;9.284;2024-01-10T14:22:36;21.13;;;10.05;;
4311;SDS011;2169;49.086;9.284;2024-01-10T14:25:03;26.05;;;8.07;;
4311;SDS011;2169;49.086;9.284;2024-01-10T14:27:31;18.38;;;8.48;;
4311;SDS011;2169;49.086;9.284;2024-01-10T14:29:58;19.40;;;7.40;;
4311;SDS011;2169;49.086;9.284;2024-01-10T14:32:28;12.65;;;8.85;;
4311;SDS011;2169;49.086;9.284;2024-01-10T14:34:55;22.25;;;10.25;;
4311;SDS011;2169;49.086;9.284;2024-01-10T14:37:22;9.80;;;8.60;;
4311;SDS011;2169;49.086;9.284;2024-01-10T14:39:50;26.38;;;9.73;;
4311;SDS011;2169;49.086;9.284;2024-01-10T14:42:17;19.48;;;11.43;;
4311;SDS011;2169;49.086;9.284;2024-01-10T14:44:44;15.43;;;8.10;;
4311;SDS011;2169;49.086;9.284;2024-01-10T14:47:11;20.88;;;9.68;;
4311;SDS011;2169;49.086;9.284;2024-01-10T14:49:38;14.63;;;9.15;;
4311;SDS011;2169;49.086;9.284;2024-01-10T14:52:05;13.88;;;8.65;;
4311;SDS011;2169;49.086;9.284;2024-01-10T14:54:32;15.23;;;8.73;;
4311;SDS011;2169;49.086;9.284;2024-01-10T14:57:00;14.93;;;7.25;;
4311;SDS011;2169;49.086;9.284;2024-01-10T14:59:28;10.90;;;7.47;;
4311;SDS011;2169;49.086;9.284;2024-01-10T15:01:55;16.13;;;8.75;;
4311;SDS011;2169;49.086;9.284;2024-01-10T15:04:22;16.02;;;9.52;;
4311;SDS011;2169;49.086;9.284;2024-01-10T15:06:49;27.65;;;10.15;;
4311;SDS011;2169;49.086;9.284;2024-01-10T15:09:16;20.13;;;10.68;;
4311;SDS011;2169;49.086;9.284;2024-01-10T15:11:44;18.77;;;8.25;;
4311;SDS011;2169;49.086;9.284;2024-01-10T15:14:12;14.07;;;8.10;;
4311;SDS011;2169;49.086;9.284;2024-01-10T15:16:39;19.45;;;9.50;;